createdAt,value
2022-11-17T00:00:32.795Z,8.70
2022-11-17T00:02:59.456Z,8.60
2022-11-17T00:05:26.083Z,8.60
2022-11-17T00:07:52.686Z,8.60
2022-11-17T00:10:19.449Z,8.60
2022-11-17T00:13:04.682Z,8.50
2022-11-17T00:15:31.287Z,8.50
2022-11-17T00:18:26.925Z,8.50
2022-11-17T00:21:12.183Z,8.50
2022-11-17T00:23:48.303Z,8.50
2022-11-17T00:26:22.766Z,8.50
2022-11-17T00:29:00.568Z,8.40
2022-11-17T00:31:47.149Z,8.40
2022-11-17T00:34:21.151Z,8.40
2022-11-17T00:36:49.805Z,8.40
2022-11-17T00:39:17.202Z,8.40
2022-11-17T00:41:43.857Z,8.40
2022-11-17T00:44:10.501Z,8.40
2022-11-17T00:46:37.746Z,8.40
2022-11-17T00:49:05.300Z,8.50
2022-11-17T00:51:31.949Z,8.50
2022-11-17T00:53:58.790Z,8.50
2022-11-17T00:56:25.672Z,8.50
2022-11-17T00:58:52.627Z,8.50
2022-11-17T01:01:19.533Z,8.50
2022-11-17T01:03:46.321Z,8.40
2022-11-17T01:06:18.641Z,8.50
2022-11-17T01:08:45.598Z,8.40
2022-11-17T01:11:16.976Z,8.40
2022-11-17T01:13:44.540Z,8.50
2022-11-17T01:16:15.866Z,8.40
2022-11-17T01:18:42.891Z,8.40
2022-11-17T01:21:11.557Z,8.40
2022-11-17T01:23:38.890Z,8.40
2022-11-17T01:26:08.918Z,8.40
2022-11-17T01:28:35.618Z,8.40
2022-11-17T01:31:03.874Z,8.40
2022-11-17T01:33:30.537Z,8.40
2022-11-17T01:36:01.075Z,8.40
2022-11-17T01:38:27.640Z,8.40
2022-11-17T01:40:54.342Z,8.40
2022-11-17T01:43:39.534Z,8.40
2022-11-17T01:46:07.514Z,8.40
2022-11-17T01:48:34.121Z,8.40
2022-11-17T01:51:00.780Z,8.40
2022-11-17T01:53:28.413Z,8.40
2022-11-17T01:55:56.976Z,8.40
2022-11-17T01:58:27.407Z,8.40
2022-11-17T02:00:54.117Z,8.40
2022-11-17T02:03:20.843Z,8.40
2022-11-17T02:05:47.514Z,8.40
2022-11-17T02:08:14.192Z,8.40
2022-11-17T02:10:40.805Z,8.40
2022-11-17T02:13:07.495Z,8.40
2022-11-17T02:15:34.109Z,8.50
2022-11-17T02:18:00.714Z,8.50
2022-11-17T02:20:31.551Z,8.50
2022-11-17T02:23:18.226Z,8.50
2022-11-17T02:25:59.918Z,8.50
2022-11-17T02:28:34.924Z,8.50
2022-11-17T02:31:19.548Z,8.60
2022-11-17T02:34:25.108Z,8.60
2022-11-17T02:37:18.418Z,8.70
2022-11-17T02:39:54.022Z,8.60
2022-11-17T02:42:58.431Z,8.60
2022-11-17T02:45:34.024Z,8.60
2022-11-17T02:48:00.662Z,8.60
2022-11-17T02:50:28.593Z,8.60
2022-11-17T02:52:55.845Z,8.60
2022-11-17T02:55:22.491Z,8.50
2022-11-17T02:57:49.731Z,8.50
2022-11-17T03:00:19.678Z,8.40
2022-11-17T03:02:58.157Z,8.40
2022-11-17T03:05:48.887Z,8.40
2022-11-17T03:08:42.062Z,8.30
2022-11-17T03:11:08.829Z,8.30
2022-11-17T03:14:00.528Z,8.30
2022-11-17T03:16:57.273Z,8.30
2022-11-17T03:19:32.101Z,8.20
2022-11-17T03:22:12.516Z,8.10
2022-11-17T03:24:41.832Z,8.20
2022-11-17T03:27:10.719Z,8.20
2022-11-17T03:29:37.901Z,8.20
2022-11-17T03:32:05.151Z,8.20
2022-11-17T03:34:35.858Z,8.20
2022-11-17T03:37:03.605Z,8.20
2022-11-17T03:39:32.962Z,8.20
2022-11-17T03:42:28.864Z,8.20
2022-11-17T03:45:01.158Z,8.20
2022-11-17T03:47:27.839Z,8.20
2022-11-17T03:49:54.429Z,8.20
2022-11-17T03:52:21.421Z,8.20
2022-11-17T03:54:48.128Z,8.20
2022-11-17T03:57:18.247Z,8.20
2022-11-17T03:59:58.114Z,8.20
2022-11-17T04:02:25.107Z,8.20
2022-11-17T04:05:06.717Z,8.20
2022-11-17T04:07:35.208Z,8.20
2022-11-17T04:10:02.167Z,8.30
2022-11-17T04:12:47.229Z,8.20
2022-11-17T04:15:32.390Z,8.30
2022-11-17T04:17:59.165Z,8.20
2022-11-17T04:20:25.901Z,8.20
2022-11-17T04:23:07.535Z,8.20
2022-11-17T04:25:56.066Z,8.30
2022-11-17T04:28:38.502Z,8.20
2022-11-17T04:31:10.595Z,8.20
2022-11-17T04:33:38.176Z,8.20
2022-11-17T04:36:05.494Z,8.20
2022-11-17T04:38:32.147Z,8.20
2022-11-17T04:41:22.224Z,8.30
2022-11-17T04:43:48.958Z,8.30
2022-11-17T04:46:16.513Z,8.30
2022-11-17T04:48:43.485Z,8.30
2022-11-17T04:51:10.275Z,8.40
2022-11-17T04:53:37.329Z,8.40
2022-11-17T04:56:04.563Z,8.30
2022-11-17T04:58:31.245Z,8.30
2022-11-17T05:01:12.166Z,8.30
2022-11-17T05:03:48.017Z,8.30
2022-11-17T05:06:38.894Z,8.30
2022-11-17T05:09:10.363Z,8.30
2022-11-17T05:11:55.432Z,8.30
2022-11-17T05:14:23.018Z,8.40
2022-11-17T05:17:09.955Z,8.40
2022-11-17T05:19:40.654Z,8.40
2022-11-17T05:22:28.033Z,8.40
2022-11-17T05:24:54.839Z,8.50
2022-11-17T05:27:22.251Z,8.50
2022-11-17T05:29:48.966Z,8.50
2022-11-17T05:32:15.634Z,8.60
2022-11-17T05:34:42.303Z,8.60
2022-11-17T05:37:08.937Z,8.60
2022-11-17T05:39:35.530Z,8.60
2022-11-17T05:42:02.123Z,8.60
2022-11-17T05:44:28.958Z,8.60
2022-11-17T05:46:55.585Z,8.60
2022-11-17T05:49:22.202Z,8.60
2022-11-17T05:51:52.703Z,8.60
2022-11-17T05:54:21.697Z,8.60
2022-11-17T05:56:49.675Z,8.70
2022-11-17T05:59:28.285Z,8.60
2022-11-17T06:02:03.056Z,8.70
2022-11-17T06:04:29.837Z,8.70
2022-11-17T06:06:59.220Z,8.70
2022-11-17T06:09:33.260Z,8.70
2022-11-17T06:12:05.503Z,8.70
2022-11-17T06:14:37.575Z,8.70
2022-11-17T06:17:07.593Z,8.60
2022-11-17T06:19:36.558Z,8.60
2022-11-17T06:22:12.687Z,8.60
2022-11-17T06:24:40.773Z,8.60
2022-11-17T06:27:07.469Z,8.60
2022-11-17T06:29:36.103Z,8.60
2022-11-17T06:32:04.845Z,8.60
2022-11-17T06:34:32.851Z,8.50
2022-11-17T06:36:59.467Z,8.60
2022-11-17T06:39:26.072Z,8.50
2022-11-17T06:41:52.711Z,8.60
2022-11-17T06:44:19.316Z,8.50
2022-11-17T06:46:48.960Z,8.60
2022-11-17T06:49:16.059Z,8.60
2022-11-17T06:51:45.433Z,8.60
2022-11-17T06:54:14.358Z,8.60
2022-11-17T06:56:41.016Z,8.70
2022-11-17T06:59:07.673Z,8.60
2022-11-17T07:01:34.433Z,8.60
2022-11-17T07:04:01.165Z,8.60
2022-11-17T07:06:27.811Z,8.60
2022-11-17T07:08:54.588Z,8.70
2022-11-17T07:11:21.294Z,8.70
2022-11-17T07:13:48.045Z,8.70
2022-11-17T07:16:21.711Z,8.80
2022-11-17T07:18:49.848Z,8.70
2022-11-17T07:21:16.532Z,8.80
2022-11-17T07:23:44.896Z,8.80
2022-11-17T07:26:11.742Z,8.70
2022-11-17T07:28:38.725Z,8.80
2022-11-17T07:31:07.129Z,8.70
2022-11-17T07:33:34.363Z,8.80
2022-11-17T07:36:09.712Z,8.80
2022-11-17T07:38:37.881Z,8.80
2022-11-17T07:41:05.583Z,8.80
2022-11-17T07:43:32.801Z,8.80
2022-11-17T07:46:05.242Z,8.80
2022-11-17T07:48:32.754Z,8.80
2022-11-17T07:51:00.152Z,8.90
2022-11-17T07:53:26.956Z,8.90
2022-11-17T07:55:53.660Z,8.90
2022-11-17T07:58:20.353Z,8.90
2022-11-17T08:00:47.139Z,8.90
2022-11-17T08:03:13.956Z,8.70
2022-11-17T08:05:43.685Z,8.90
2022-11-17T08:08:10.735Z,8.90
2022-11-17T08:10:37.493Z,8.90
2022-11-17T08:13:04.311Z,8.90
2022-11-17T08:15:31.333Z,8.90
2022-11-17T08:17:59.073Z,8.90
2022-11-17T08:20:26.160Z,8.90
2022-11-17T08:22:53.508Z,8.90
2022-11-17T08:25:20.454Z,8.90
2022-11-17T08:27:51.857Z,8.90
2022-11-17T08:30:20.352Z,9.00
2022-11-17T08:32:52.149Z,9.00
2022-11-17T08:35:19.792Z,9.10
2022-11-17T08:37:46.670Z,9.00
2022-11-17T08:40:13.535Z,9.10
2022-11-17T08:42:40.276Z,9.00
2022-11-17T08:45:07.563Z,9.10
2022-11-17T08:47:34.304Z,9.00
2022-11-17T08:50:00.935Z,9.00
2022-11-17T08:52:28.127Z,9.10
2022-11-17T08:54:54.910Z,9.10
2022-11-17T08:57:24.443Z,9.10
2022-11-17T08:59:51.168Z,9.10
2022-11-17T09:02:17.995Z,9.20
2022-11-17T09:04:46.143Z,9.20
2022-11-17T09:07:12.950Z,9.20
2022-11-17T09:09:39.758Z,9.20
2022-11-17T09:12:06.514Z,9.20
2022-11-17T09:14:33.333Z,9.30
2022-11-17T09:16:59.986Z,9.20
2022-11-17T09:19:26.899Z,9.30
2022-11-17T09:21:53.513Z,9.30
2022-11-17T09:24:20.173Z,9.30
2022-11-17T09:26:46.942Z,9.30
2022-11-17T09:29:13.662Z,9.40
2022-11-17T09:31:40.352Z,9.40
2022-11-17T09:34:07.174Z,9.40
2022-11-17T09:36:34.876Z,9.50
2022-11-17T09:39:01.499Z,9.60
2022-11-17T09:41:46.474Z,9.60
2022-11-17T09:44:31.084Z,9.60
2022-11-17T09:47:22.762Z,9.60
2022-11-17T09:49:59.533Z,9.90
2022-11-17T09:52:49.336Z,9.80
2022-11-17T09:55:34.240Z,9.70
2022-11-17T09:58:25.210Z,9.70
2022-11-17T10:00:52.736Z,9.80
2022-11-17T10:03:26.735Z,9.80
2022-11-17T10:05:53.388Z,9.80
2022-11-17T10:08:29.556Z,9.90
2022-11-17T10:10:56.227Z,9.90
2022-11-17T10:13:31.060Z,10.10
2022-11-17T10:16:01.299Z,10.10
2022-11-17T10:18:27.942Z,10.20
2022-11-17T10:20:54.592Z,10.20
2022-11-17T10:23:21.279Z,10.20
2022-11-17T10:25:49.353Z,10.10
2022-11-17T10:28:36.381Z,10.20
2022-11-17T10:31:19.134Z,10.10
2022-11-17T10:33:49.863Z,10.10
2022-11-17T10:36:25.671Z,10.10
2022-11-17T10:38:53.373Z,10.10
2022-11-17T10:41:42.265Z,10.10
2022-11-17T10:44:17.618Z,10.10
2022-11-17T10:47:02.709Z,10.20
2022-11-17T10:49:34.169Z,10.20
2022-11-17T10:52:16.114Z,10.30
2022-11-17T10:54:42.852Z,10.20
2022-11-17T10:57:30.937Z,10.30
2022-11-17T10:59:57.954Z,10.40
2022-11-17T11:02:30.397Z,10.30
2022-11-17T11:05:09.574Z,10.40
2022-11-17T11:07:36.460Z,10.30
2022-11-17T11:10:24.931Z,10.30
2022-11-17T11:13:10.649Z,10.40
2022-11-17T11:15:37.293Z,10.50
2022-11-17T11:18:16.993Z,10.60
2022-11-17T11:20:59.703Z,10.80
2022-11-17T11:23:34.672Z,10.90
2022-11-17T11:26:25.800Z,11.00
2022-11-17T11:29:14.799Z,11.10
2022-11-17T11:31:57.539Z,11.20
2022-11-17T11:34:46.788Z,11.20
2022-11-17T11:37:13.960Z,11.20
2022-11-17T11:40:09.754Z,11.20
2022-11-17T11:42:54.996Z,11.20
2022-11-17T11:45:21.710Z,11.20
2022-11-17T11:47:51.376Z,11.30
2022-11-17T11:50:31.430Z,11.40
2022-11-17T11:53:05.052Z,11.50
2022-11-17T11:55:34.559Z,11.70
2022-11-17T11:58:28.819Z,11.70
2022-11-17T12:01:05.821Z,11.60
2022-11-17T12:03:57.478Z,11.60
2022-11-17T12:06:43.333Z,11.60
2022-11-17T12:09:37.906Z,11.60
2022-11-17T12:12:08.646Z,11.50
2022-11-17T12:14:37.057Z,11.40
2022-11-17T12:17:14.105Z,11.40
2022-11-17T12:19:53.216Z,11.40
2022-11-17T12:22:47.329Z,11.40
2022-11-17T12:25:18.483Z,11.40
2022-11-17T12:27:54.473Z,11.40
2022-11-17T12:30:47.575Z,11.40
2022-11-17T12:33:14.292Z,11.40
2022-11-17T12:35:40.967Z,11.50
2022-11-17T12:38:16.743Z,11.50
2022-11-17T12:40:51.039Z,11.50
2022-11-17T12:43:24.989Z,11.60
2022-11-17T12:46:03.907Z,11.60
2022-11-17T12:48:35.573Z,11.80
2022-11-17T12:51:30.823Z,11.90
2022-11-17T12:54:30.725Z,12.00
2022-11-17T12:57:01.654Z,12.10
2022-11-17T12:59:46.373Z,12.10
2022-11-17T13:02:41.123Z,12.10
2022-11-17T13:05:21.547Z,12.10
2022-11-17T13:07:48.268Z,12.00
2022-11-17T13:10:31.211Z,12.00
2022-11-17T13:13:13.205Z,12.00
2022-11-17T13:15:40.683Z,12.10
2022-11-17T13:18:15.092Z,12.10
2022-11-17T13:20:41.699Z,12.10
2022-11-17T13:23:24.289Z,12.10
2022-11-17T13:25:51.047Z,12.10
2022-11-17T13:28:26.391Z,12.10
2022-11-17T13:30:53.026Z,12.10
2022-11-17T13:33:21.416Z,12.00
2022-11-17T13:35:48.034Z,11.90
2022-11-17T13:38:25.228Z,11.90
2022-11-17T13:40:52.390Z,11.80
2022-11-17T13:43:23.203Z,11.70
2022-11-17T13:45:50.511Z,11.60
2022-11-17T13:48:42.197Z,11.60
2022-11-17T13:51:30.055Z,11.60
2022-11-17T13:54:17.620Z,11.50
2022-11-17T13:56:47.236Z,11.50
2022-11-17T13:59:19.908Z,11.50
2022-11-17T14:01:46.680Z,11.70
2022-11-17T14:04:21.905Z,11.80
2022-11-17T14:07:28.668Z,11.90
2022-11-17T14:10:27.607Z,12.00
2022-11-17T14:13:24.604Z,12.00
2022-11-17T14:15:56.597Z,11.90
2022-11-17T14:18:25.816Z,11.70
2022-11-17T14:21:10.206Z,11.60
2022-11-17T14:23:36.907Z,11.40
2022-11-17T14:26:03.644Z,11.30
2022-11-17T14:28:30.389Z,11.20
2022-11-17T14:30:57.466Z,11.20
2022-11-17T14:33:24.311Z,11.10
2022-11-17T14:35:55.408Z,11.10
2022-11-17T14:38:22.083Z,11.10
2022-11-17T14:40:51.039Z,11.00
2022-11-17T14:43:19.009Z,10.90
2022-11-17T14:45:45.679Z,11.00
2022-11-17T14:48:17.583Z,11.10
2022-11-17T14:50:45.705Z,11.10
2022-11-17T14:53:12.388Z,11.10
2022-11-17T14:55:39.000Z,11.00
2022-11-17T14:58:05.685Z,10.90
2022-11-17T15:00:32.288Z,10.80
2022-11-17T15:02:58.957Z,10.70
2022-11-17T15:05:25.577Z,10.70
2022-11-17T15:07:52.238Z,10.60
2022-11-17T15:10:18.900Z,10.60
2022-11-17T15:12:45.512Z,10.50
2022-11-17T15:15:12.410Z,10.50
2022-11-17T15:17:39.108Z,10.40
2022-11-17T15:20:06.803Z,10.40
2022-11-17T15:22:33.446Z,10.40
2022-11-17T15:25:00.249Z,10.40
2022-11-17T15:27:26.937Z,10.30
2022-11-17T15:29:53.917Z,10.30
2022-11-17T15:32:20.542Z,10.30
2022-11-17T15:34:47.172Z,10.20
2022-11-17T15:37:13.803Z,10.30
2022-11-17T15:39:40.458Z,10.20
2022-11-17T15:42:07.130Z,10.20
2022-11-17T15:44:33.802Z,10.30
2022-11-17T15:47:00.471Z,10.30
2022-11-17T15:49:27.154Z,10.40
2022-11-17T15:51:54.479Z,10.40
2022-11-17T15:54:21.360Z,10.40
2022-11-17T15:56:48.338Z,10.40
2022-11-17T15:59:15.326Z,10.30
2022-11-17T16:01:42.264Z,10.40
2022-11-17T16:04:14.698Z,10.40
2022-11-17T16:06:42.056Z,10.30
2022-11-17T16:09:09.058Z,10.30
2022-11-17T16:11:36.214Z,10.30
2022-11-17T16:14:03.317Z,10.30
2022-11-17T16:16:31.871Z,10.30
2022-11-17T16:18:58.590Z,10.20
2022-11-17T16:21:25.420Z,10.20
2022-11-17T16:23:56.691Z,10.20
2022-11-17T16:26:24.519Z,10.20
2022-11-17T16:28:57.129Z,10.10
2022-11-17T16:31:25.542Z,10.20
2022-11-17T16:33:56.967Z,10.00
2022-11-17T16:36:25.084Z,10.10
2022-11-17T16:39:01.801Z,10.00
2022-11-17T16:41:32.491Z,10.00
2022-11-17T16:43:59.503Z,10.00
2022-11-17T16:46:30.484Z,10.10
2022-11-17T16:49:00.459Z,9.90
2022-11-17T16:51:27.184Z,10.00
2022-11-17T16:54:02.042Z,9.90
2022-11-17T16:56:28.907Z,9.80
2022-11-17T16:58:55.745Z,9.70
2022-11-17T17:01:24.489Z,9.70
2022-11-17T17:03:55.912Z,9.60
2022-11-17T17:06:22.530Z,9.60
2022-11-17T17:08:59.590Z,9.50
2022-11-17T17:11:27.246Z,9.50
2022-11-17T17:13:54.016Z,9.40
2022-11-17T17:16:20.901Z,9.50
2022-11-17T17:18:47.602Z,9.50
2022-11-17T17:21:16.269Z,9.50
2022-11-17T17:23:43.241Z,9.50
2022-11-17T17:26:14.050Z,9.50
2022-11-17T17:28:41.105Z,9.50
2022-11-17T17:31:08.285Z,9.50
2022-11-17T17:33:35.623Z,9.50
2022-11-17T17:36:23.486Z,9.40
2022-11-17T17:38:55.387Z,9.40
2022-11-17T17:41:26.892Z,9.30
2022-11-17T17:43:59.030Z,9.30
2022-11-17T17:46:26.120Z,9.20
2022-11-17T17:48:52.825Z,9.20
2022-11-17T17:51:20.454Z,9.10
2022-11-17T17:53:50.380Z,9.00
2022-11-17T17:56:18.324Z,8.90
2022-11-17T17:58:46.713Z,8.90
2022-11-17T18:01:14.377Z,8.80
2022-11-17T18:03:48.371Z,8.60
2022-11-17T18:06:16.852Z,8.50
2022-11-17T18:08:43.781Z,8.40
2022-11-17T18:11:16.443Z,8.40
2022-11-17T18:13:44.499Z,8.30
2022-11-17T18:16:13.025Z,8.20
2022-11-17T18:18:39.878Z,8.10
2022-11-17T18:21:08.412Z,8.00
2022-11-17T18:23:35.312Z,8.00
2022-11-17T18:26:11.200Z,7.90
2022-11-17T18:28:38.564Z,7.90
2022-11-17T18:31:06.045Z,7.90
2022-11-17T18:33:32.872Z,7.80
2022-11-17T18:36:17.817Z,7.80
2022-11-17T18:38:44.428Z,7.70
2022-11-17T18:41:12.505Z,7.70
2022-11-17T18:43:39.290Z,7.80
2022-11-17T18:46:07.408Z,7.70
2022-11-17T18:48:34.656Z,7.70
2022-11-17T18:51:20.804Z,7.70
2022-11-17T18:53:48.870Z,7.60
2022-11-17T18:56:16.840Z,7.70
2022-11-17T18:58:44.285Z,7.70
2022-11-17T19:01:12.078Z,7.80
2022-11-17T19:03:39.004Z,7.80
2022-11-17T19:06:06.160Z,7.90
2022-11-17T19:08:33.450Z,7.90
2022-11-17T19:11:05.751Z,7.90
2022-11-17T19:13:33.735Z,7.90
2022-11-17T19:16:11.206Z,7.80
2022-11-17T19:18:38.015Z,7.70
2022-11-17T19:21:05.828Z,7.70
2022-11-17T19:23:36.173Z,7.70
2022-11-17T19:26:04.674Z,7.60
2022-11-17T19:28:31.492Z,7.60
2022-11-17T19:31:08.805Z,7.50
2022-11-17T19:33:36.704Z,7.40
2022-11-17T19:36:17.347Z,7.40
2022-11-17T19:38:45.461Z,7.40
2022-11-17T19:41:16.708Z,7.40
2022-11-17T19:43:45.454Z,7.40
2022-11-17T19:46:15.783Z,7.40
2022-11-17T19:48:42.649Z,7.50
2022-11-17T19:51:20.267Z,7.60
2022-11-17T19:53:51.599Z,7.60
2022-11-17T19:56:18.511Z,7.70
2022-11-17T19:58:46.134Z,7.70
2022-11-17T20:01:17.515Z,7.70
2022-11-17T20:03:44.458Z,7.80
2022-11-17T20:06:14.022Z,7.80
2022-11-17T20:08:40.697Z,7.70
2022-11-17T20:11:12.382Z,7.70
2022-11-17T20:13:39.112Z,7.80
2022-11-17T20:16:12.037Z,7.80
2022-11-17T20:18:38.915Z,7.80
2022-11-17T20:21:06.488Z,7.90
2022-11-17T20:23:34.637Z,7.80
2022-11-17T20:26:08.731Z,7.80
2022-11-17T20:28:36.389Z,7.80
2022-11-17T20:31:13.151Z,7.90
2022-11-17T20:33:40.533Z,7.90
2022-11-17T20:36:08.243Z,7.90
2022-11-17T20:38:35.886Z,7.80
2022-11-17T20:41:02.632Z,7.80
2022-11-17T20:43:29.450Z,7.80
2022-11-17T20:45:56.570Z,7.70
2022-11-17T20:48:23.329Z,7.70
2022-11-17T20:51:05.738Z,7.70
2022-11-17T20:53:32.655Z,7.70
2022-11-17T20:55:59.784Z,7.60
2022-11-17T20:58:26.754Z,7.60
2022-11-17T21:00:53.738Z,7.60
2022-11-17T21:03:20.725Z,7.50
2022-11-17T21:05:58.680Z,7.40
2022-11-17T21:08:26.358Z,7.40
2022-11-17T21:11:00.461Z,7.30
2022-11-17T21:13:27.433Z,7.20
2022-11-17T21:16:09.186Z,7.10
2022-11-17T21:18:36.294Z,7.10
2022-11-17T21:21:08.801Z,7.00
2022-11-17T21:23:37.222Z,6.90
2022-11-17T21:26:11.864Z,6.90
2022-11-17T21:28:38.749Z,7.00
2022-11-17T21:31:07.510Z,6.90
2022-11-17T21:33:34.993Z,7.00
2022-11-17T21:36:02.742Z,7.10
2022-11-17T21:38:30.130Z,7.10
2022-11-17T21:41:10.662Z,7.20
2022-11-17T21:43:37.811Z,7.30
2022-11-17T21:46:06.601Z,7.30
2022-11-17T21:48:34.496Z,7.40
2022-11-17T21:51:01.178Z,7.40
2022-11-17T21:53:27.944Z,7.40
2022-11-17T21:56:03.110Z,7.50
2022-11-17T21:58:29.751Z,7.50
2022-11-17T22:00:56.438Z,7.50
2022-11-17T22:03:24.007Z,7.50
2022-11-17T22:05:52.283Z,7.50
2022-11-17T22:08:19.291Z,7.60
2022-11-17T22:10:45.926Z,7.50
2022-11-17T22:13:12.678Z,7.50
2022-11-17T22:15:39.321Z,7.50
2022-11-17T22:18:06.060Z,7.50
2022-11-17T22:20:32.747Z,7.60
2022-11-17T22:22:59.415Z,7.60
2022-11-17T22:25:44.139Z,7.60
2022-11-17T22:28:12.114Z,7.60
2022-11-17T22:30:39.271Z,7.60
2022-11-17T22:33:05.936Z,7.60
2022-11-17T22:35:32.603Z,7.60
2022-11-17T22:38:08.129Z,7.60
2022-11-17T22:40:34.827Z,7.60
2022-11-17T22:43:04.469Z,7.60
2022-11-17T22:45:32.113Z,7.60
2022-11-17T22:47:58.796Z,7.60
2022-11-17T22:50:25.455Z,7.60
2022-11-17T22:52:52.129Z,7.70
2022-11-17T22:55:18.783Z,7.70
2022-11-17T22:57:45.747Z,7.70
2022-11-17T23:00:13.134Z,7.70
2022-11-17T23:02:39.763Z,7.70
2022-11-17T23:05:06.640Z,7.70
2022-11-17T23:07:33.385Z,7.70
2022-11-17T23:10:00.078Z,7.70
2022-11-17T23:12:26.722Z,7.70
2022-11-17T23:14:53.376Z,7.70
2022-11-17T23:17:20.994Z,7.70
2022-11-17T23:19:47.819Z,7.70
2022-11-17T23:22:14.468Z,7.70
2022-11-17T23:24:41.079Z,7.70
2022-11-17T23:27:07.750Z,7.70
2022-11-17T23:29:34.490Z,7.70
2022-11-17T23:32:01.119Z,7.80
2022-11-17T23:34:27.830Z,7.70
2022-11-17T23:36:58.276Z,7.80
2022-11-17T23:39:27.551Z,7.80
2022-11-17T23:41:54.197Z,7.80
2022-11-17T23:44:20.837Z,7.80
2022-11-17T23:46:47.480Z,7.80
2022-11-17T23:49:14.694Z,7.80
2022-11-17T23:51:41.603Z,7.80
2022-11-17T23:54:11.366Z,7.80
2022-11-17T23:56:38.041Z,7.80
2022-11-17T23:59:04.886Z,7.80
